Shinkai Maru — JJ4012 — position and weather

sailwx.info

Track history (hours):
 
Tides and Currents Weather Stations Pressure Air Temp Water Temp Dewpoint Dewpoint Depression Visibility Wind Speed Wind Dir Waves Ship Positions

Shinkai Maru

Last reported at 2016-Jul-27 22:33 UTC. Time now 2016-Jul-27 23:02 UTC.
Position N 35°39' E 139°58'.

Length 76 m; draft 4.1 m.

Type: Cargo ship. MMSI: 431301346.

Date/timePositionNaut miles runAvg speedWind from/ knotsBaromVisibWave heightAir tempDewpointWater temp
2016-Jul-27 22:33N 35°39' E 139°58'3 2.7
2016-Jul-27 21:31N 35°36' E 139°58'0 0.0
2016-Jul-27 20:28N 35°36' E 139°58'0 0.0
2016-Jul-27 19:25N 35°36' E 139°58'0 0.0
2016-Jul-27 18:28N 35°36' E 139°58'0 0.0
2016-Jul-27 17:28N 35°36' E 139°58'0 0.0
2016-Jul-27 16:13N 35°36' E 139°58'0 0.0
2016-Jul-27 15:28N 35°36' E 139°58'0 0.0
2016-Jul-27 14:28N 35°36' E 139°58'6 7.0
2016-Jul-27 13:33N 35°31' E 139°54'1312.5
2016-Jul-27 12:33N 35°21' E 139°45'1212.1
2016-Jul-27 11:32N 35°09' E 139°46'238 9.5
2016-Jul-26 10:32N 34°26' E 135°01'11 9.3
2016-Jul-26 09:19N 34°37' E 134°56'6 0.2
2016-Jul-24 20:24N 34°41' E 134°50'8 8.8
2016-Jul-24 19:33N 34°37' E 134°58'8 8.4
2016-Jul-24 18:33N 34°31' E 135°05'2412.0
2016-Jul-24 16:32N 34°08' E 135°00'  
2016-Jul-18 22:11N 34°41' E 134°48'811.9
2016-Jul-18 21:31N 34°37' E 134°57'9 9.3
2016-Jul-18 20:33N 34°31' E 135°04'1512.3
2016-Jul-18 19:19N 34°16' E 134°59'911.5
2016-Jul-18 18:33N 34°08' E 135°01'  
Track history (hours):
 
Tides and Currents Weather Stations Pressure Air Temp Water Temp Dewpoint Dewpoint Depression Visibility Wind Speed Wind Dir Waves Ship Positions

Shinkai Maru

Last reported at 2016-Jul-27 22:33 UTC. Time now 2016-Jul-27 23:02 UTC.
Position N 35°39' E 139°58'.

Length 76 m; draft 4.1 m.

Type: Cargo ship. MMSI: 431301346.

Date/timePositionNaut miles runAvg speedWind from/ knotsBaromVisibWave heightAir tempDewpointWater temp
2016-Jul-27 22:33N 35°39' E 139°58'3 2.7
2016-Jul-27 21:31N 35°36' E 139°58'0 0.0
2016-Jul-27 20:28N 35°36' E 139°58'0 0.0
2016-Jul-27 19:25N 35°36' E 139°58'0 0.0
2016-Jul-27 18:28N 35°36' E 139°58'0 0.0
2016-Jul-27 17:28N 35°36' E 139°58'0 0.0
2016-Jul-27 16:13N 35°36' E 139°58'0 0.0
2016-Jul-27 15:28N 35°36' E 139°58'0 0.0
2016-Jul-27 14:28N 35°36' E 139°58'6 7.0
2016-Jul-27 13:33N 35°31' E 139°54'1312.5
2016-Jul-27 12:33N 35°21' E 139°45'1212.1
2016-Jul-27 11:32N 35°09' E 139°46'238 9.5
2016-Jul-26 10:32N 34°26' E 135°01'11 9.3
2016-Jul-26 09:19N 34°37' E 134°56'6 0.2
2016-Jul-24 20:24N 34°41' E 134°50'8 8.8
2016-Jul-24 19:33N 34°37' E 134°58'8 8.4
2016-Jul-24 18:33N 34°31' E 135°05'2412.0
2016-Jul-24 16:32N 34°08' E 135°00'  
2016-Jul-18 22:11N 34°41' E 134°48'811.9
2016-Jul-18 21:31N 34°37' E 134°57'9 9.3
2016-Jul-18 20:33N 34°31' E 135°04'1512.3
2016-Jul-18 19:19N 34°16' E 134°59'911.5
2016-Jul-18 18:33N 34°08' E 135°01'  

Dump ship's entire track history